createdAt,value
2018-01-20T00:05:40.517Z,1.60
2018-01-20T00:08:07.960Z,1.97
2018-01-20T00:10:47.333Z,1.80
2018-01-20T00:13:14.767Z,1.90
2018-01-20T00:15:42.239Z,1.73
2018-01-20T00:18:09.680Z,1.50
2018-01-20T00:20:37.149Z,2.10
2018-01-20T00:23:04.594Z,2.20
2018-01-20T00:25:32.802Z,1.80
2018-01-20T00:28:00.257Z,1.60
2018-01-20T00:30:27.709Z,1.97
2018-01-20T00:32:55.174Z,1.70
2018-01-20T00:35:22.631Z,1.80
2018-01-20T00:37:50.077Z,2.27
2018-01-20T00:40:18.293Z,2.10
2018-01-20T00:42:45.741Z,1.90
2018-01-20T00:45:13.192Z,1.80
2018-01-20T00:47:41.401Z,1.83
2018-01-20T00:50:08.861Z,2.00
2018-01-20T00:52:36.308Z,1.60
2018-01-20T00:55:03.770Z,1.70
2018-01-20T00:57:31.221Z,1.93
2018-01-20T00:59:59.457Z,1.40
2018-01-20T01:02:26.888Z,1.63
2018-01-20T01:04:54.321Z,1.90
2018-01-20T01:07:21.766Z,1.80
2018-01-20T01:09:49.210Z,2.00
2018-01-20T01:12:16.664Z,1.70
2018-01-20T01:14:44.113Z,1.60
2018-01-20T01:17:11.549Z,1.67
2018-01-20T01:19:38.994Z,1.90
2018-01-20T01:22:07.202Z,1.90
2018-01-20T01:24:34.656Z,1.90
2018-01-20T01:27:02.131Z,1.93
2018-01-20T01:29:29.592Z,2.00
2018-01-20T01:31:57.035Z,2.07
2018-01-20T01:34:24.466Z,1.70
2018-01-20T01:36:51.909Z,1.90
2018-01-20T01:39:19.335Z,1.80
2018-01-20T01:41:46.807Z,1.80
2018-01-20T01:44:14.339Z,2.00
2018-01-20T01:46:42.554Z,2.10
2018-01-20T01:49:10.035Z,1.93
2018-01-20T01:51:37.492Z,2.07
2018-01-20T01:54:04.941Z,1.83
2018-01-20T01:56:32.384Z,2.03
2018-01-20T01:58:59.826Z,2.00
2018-01-20T02:01:28.066Z,1.90
2018-01-20T02:03:55.521Z,1.77
2018-01-20T02:06:22.972Z,1.63
2018-01-20T02:08:50.414Z,1.90
2018-01-20T02:11:17.858Z,1.60
2018-01-20T02:13:46.075Z,1.50
2018-01-20T02:16:13.532Z,1.83
2018-01-20T02:18:40.982Z,2.07
2018-01-20T02:21:08.407Z,1.80
2018-01-20T02:23:35.862Z,1.90
2018-01-20T02:26:03.304Z,1.70
2018-01-20T02:28:30.742Z,2.10
2018-01-20T02:30:58.172Z,1.83
2018-01-20T02:33:26.450Z,1.87
2018-01-20T02:35:53.853Z,1.83
2018-01-20T02:38:21.298Z,1.60
2018-01-20T02:40:48.775Z,2.00
2018-01-20T02:43:16.212Z,1.87
2018-01-20T02:45:43.665Z,1.80
2018-01-20T02:48:11.892Z,1.67
2018-01-20T02:50:39.334Z,1.80
2018-01-20T02:53:06.792Z,1.60
2018-01-20T02:55:34.226Z,1.93
2018-01-20T02:58:02.452Z,2.07
2018-01-20T03:00:29.880Z,1.70
2018-01-20T03:02:58.085Z,2.10
2018-01-20T03:05:25.546Z,1.97
2018-01-20T03:07:53.001Z,2.00
2018-01-20T03:10:20.446Z,1.97
2018-01-20T03:12:48.877Z,2.20
2018-01-20T03:15:16.324Z,1.80
2018-01-20T03:17:43.793Z,2.10
2018-01-20T03:20:11.236Z,2.27
2018-01-20T03:22:38.696Z,1.80
2018-01-20T03:25:06.150Z,1.83
2018-01-20T03:27:33.596Z,1.90
2018-01-20T03:30:01.817Z,1.70
2018-01-20T03:32:29.256Z,1.73
2018-01-20T03:34:56.693Z,2.07
2018-01-20T03:37:24.897Z,2.20
2018-01-20T03:39:52.359Z,2.17
2018-01-20T03:42:19.810Z,2.00
2018-01-20T03:44:48.028Z,1.90
2018-01-20T03:47:15.484Z,1.70
2018-01-20T03:49:42.941Z,2.70
2018-01-20T03:52:10.385Z,2.03
2018-01-20T03:54:38.600Z,2.03
2018-01-20T03:57:06.061Z,1.90
2018-01-20T03:59:33.517Z,2.07
2018-01-20T04:02:00.970Z,2.13
2018-01-20T04:04:28.429Z,2.07
2018-01-20T04:06:55.891Z,2.17
2018-01-20T04:09:23.339Z,1.87
2018-01-20T04:11:51.543Z,2.17
2018-01-20T04:14:18.975Z,1.70
2018-01-20T04:16:47.191Z,2.17
2018-01-20T04:19:14.647Z,2.30
2018-01-20T04:21:42.096Z,2.00
2018-01-20T04:24:09.544Z,2.00
2018-01-20T04:26:37.755Z,1.90
2018-01-20T04:29:05.205Z,1.87
2018-01-20T04:31:32.644Z,2.17
2018-01-20T04:34:00.861Z,2.10
2018-01-20T04:36:28.299Z,2.43
2018-01-20T04:38:56.520Z,2.30
2018-01-20T04:41:23.975Z,2.10
2018-01-20T04:43:51.514Z,2.07
2018-01-20T04:46:18.939Z,2.30
2018-01-20T04:48:46.386Z,2.03
2018-01-20T04:51:13.847Z,1.90
2018-01-20T04:53:41.285Z,1.83
2018-01-20T04:56:08.750Z,2.10
2018-01-20T04:58:36.950Z,2.00
2018-01-20T05:01:04.390Z,1.97
2018-01-20T05:03:31.832Z,2.23
2018-01-20T05:05:59.308Z,2.00
2018-01-20T05:08:26.766Z,2.10
2018-01-20T05:10:54.195Z,2.07
2018-01-20T05:13:22.407Z,2.27
2018-01-20T05:15:49.848Z,2.10
2018-01-20T05:18:18.062Z,2.33
2018-01-20T05:20:45.513Z,2.00
2018-01-20T05:23:12.959Z,2.20
2018-01-20T05:25:40.441Z,1.73
2018-01-20T05:28:07.914Z,2.03
2018-01-20T05:30:35.358Z,2.13
2018-01-20T05:33:02.812Z,2.07
2018-01-20T05:35:30.242Z,2.47
2018-01-20T05:37:58.473Z,2.10
2018-01-20T05:40:25.910Z,1.80
2018-01-20T05:42:53.376Z,2.13
2018-01-20T05:45:20.828Z,1.70
2018-01-20T05:47:49.140Z,1.90
2018-01-20T05:50:16.584Z,1.77
2018-01-20T05:52:44.057Z,1.80
2018-01-20T05:55:11.510Z,2.00
2018-01-20T05:57:38.983Z,2.00
2018-01-20T06:00:06.444Z,1.97
2018-01-20T06:02:33.900Z,1.70
2018-01-20T06:05:02.100Z,2.07
2018-01-20T06:07:34.322Z,2.20
2018-01-20T06:10:01.778Z,2.20
2018-01-20T06:12:29.228Z,1.83
2018-01-20T06:14:56.663Z,1.90
2018-01-20T06:17:24.119Z,1.93
2018-01-20T06:19:51.595Z,1.80
2018-01-20T06:22:19.039Z,1.77
2018-01-20T06:24:46.485Z,1.40
2018-01-20T06:27:13.928Z,2.00
2018-01-20T06:29:42.163Z,1.80
2018-01-20T06:32:09.594Z,2.00
2018-01-20T06:34:37.047Z,2.10
2018-01-20T06:37:04.494Z,1.80
2018-01-20T06:39:32.711Z,1.60
2018-01-20T06:42:00.153Z,1.83
2018-01-20T06:44:28.359Z,2.77
2018-01-20T06:46:55.845Z,1.90
2018-01-20T06:49:24.008Z,2.00
2018-01-20T06:51:51.487Z,2.07
2018-01-20T06:54:18.922Z,2.40
2018-01-20T06:56:46.401Z,1.93
2018-01-20T06:59:13.849Z,1.80
2018-01-20T07:01:41.302Z,1.83
2018-01-20T07:04:08.748Z,2.07
2018-01-20T07:06:36.266Z,1.90
2018-01-20T07:09:04.088Z,2.17
2018-01-20T07:11:32.291Z,2.00
2018-01-20T07:13:59.742Z,1.90
2018-01-20T07:16:27.178Z,2.10
2018-01-20T07:18:55.403Z,1.97
2018-01-20T07:24:05.726Z,2.00
2018-01-20T07:26:33.932Z,2.23
2018-01-20T07:29:02.152Z,2.00
2018-01-20T07:31:29.611Z,2.00
2018-01-20T07:33:57.113Z,2.40
2018-01-20T07:36:24.573Z,2.50
2018-01-20T07:38:52.794Z,2.47
2018-01-20T07:41:20.268Z,2.73
2018-01-20T07:43:47.718Z,2.50
2018-01-20T07:46:15.164Z,2.53
2018-01-20T07:48:42.638Z,2.60
2018-01-20T07:51:10.092Z,2.87
2018-01-20T07:53:37.528Z,3.00
2018-01-20T07:56:04.972Z,2.67
2018-01-20T07:58:32.425Z,2.47
2018-01-20T08:00:59.855Z,3.07
2018-01-20T08:03:28.078Z,3.27
2018-01-20T08:05:55.580Z,2.87
2018-01-20T08:08:23.790Z,2.80
2018-01-20T08:10:51.245Z,2.97
2018-01-20T08:13:18.681Z,3.00
2018-01-20T08:15:46.910Z,2.67
2018-01-20T08:18:14.365Z,2.80
2018-01-20T08:20:41.848Z,3.10
2018-01-20T08:23:09.307Z,2.93
2018-01-20T08:25:36.737Z,3.73
2018-01-20T08:28:04.186Z,3.10
2018-01-20T08:30:31.669Z,4.07
2018-01-20T08:32:59.106Z,4.00
2018-01-20T08:35:26.584Z,3.70
2018-01-20T08:37:54.028Z,3.73
2018-01-20T08:40:21.472Z,4.53
2018-01-20T08:42:49.084Z,3.57
2018-01-20T08:45:16.541Z,3.60
2018-01-20T08:47:43.989Z,3.73
2018-01-20T08:50:11.469Z,4.20
2018-01-20T08:52:38.903Z,4.10
2018-01-20T08:55:07.121Z,4.13
2018-01-20T08:57:34.571Z,3.70
2018-01-20T09:00:02.037Z,3.77
2018-01-20T09:02:29.497Z,4.43
2018-01-20T09:04:56.966Z,3.97
2018-01-20T09:07:24.424Z,4.20
2018-01-20T09:09:51.888Z,3.80
2018-01-20T09:12:19.344Z,4.40
2018-01-20T09:14:46.823Z,4.33
2018-01-20T09:17:14.280Z,4.47
2018-01-20T09:19:41.731Z,4.93
2018-01-20T09:22:09.198Z,4.73
2018-01-20T09:24:36.685Z,4.73
2018-01-20T09:27:04.124Z,4.47
2018-01-20T09:29:31.563Z,5.00
2018-01-20T09:31:59.023Z,5.00
2018-01-20T09:34:27.252Z,4.80
2018-01-20T09:36:54.721Z,4.90
2018-01-20T09:39:22.197Z,4.87
2018-01-20T09:41:49.675Z,5.03
2018-01-20T09:44:17.149Z,5.87
2018-01-20T09:46:45.362Z,5.00
2018-01-20T09:49:12.846Z,5.00
2018-01-20T09:51:40.294Z,5.13
2018-01-20T09:54:07.744Z,4.07
2018-01-20T09:56:35.209Z,4.43
2018-01-20T09:59:02.646Z,4.80
2018-01-20T10:01:30.863Z,5.37
2018-01-20T10:03:58.311Z,4.77
2018-01-20T10:06:25.792Z,4.10
2018-01-20T10:08:53.614Z,4.50
2018-01-20T10:11:21.839Z,5.57
2018-01-20T10:13:49.289Z,5.40
2018-01-20T10:16:16.753Z,4.93
2018-01-20T10:18:44.179Z,4.80
2018-01-20T10:21:12.397Z,5.60
2018-01-20T10:23:39.859Z,5.03
2018-01-20T10:26:07.281Z,5.00
2018-01-20T10:28:35.523Z,4.97
2018-01-20T10:31:02.977Z,4.70
2018-01-20T10:33:30.426Z,5.30
2018-01-20T10:35:57.927Z,4.93
2018-01-20T10:38:26.152Z,5.37
2018-01-20T10:40:53.604Z,5.33
2018-01-20T10:43:21.826Z,5.30
2018-01-20T10:45:49.281Z,5.63
2018-01-20T10:48:16.818Z,5.13
2018-01-20T10:50:45.120Z,5.73
2018-01-20T10:53:12.561Z,6.43
2018-01-20T10:55:40.770Z,5.17
2018-01-20T10:58:08.235Z,5.83
2018-01-20T11:00:35.695Z,5.27
2018-01-20T11:03:03.157Z,6.07
2018-01-20T11:05:30.617Z,5.57
2018-01-20T11:07:58.822Z,5.57
2018-01-20T11:10:26.253Z,6.00
2018-01-20T11:12:53.704Z,6.10
2018-01-20T11:15:21.129Z,6.17
2018-01-20T11:17:48.594Z,5.87
2018-01-20T11:20:16.032Z,5.93
2018-01-20T11:22:43.464Z,6.57
2018-01-20T11:25:10.898Z,6.20
2018-01-20T11:27:39.149Z,5.80
2018-01-20T11:30:06.579Z,6.43
2018-01-20T11:32:34.039Z,5.53
2018-01-20T11:35:01.481Z,6.03
2018-01-20T11:37:28.931Z,6.00
2018-01-20T11:39:57.160Z,6.33
2018-01-20T11:42:24.609Z,5.97
2018-01-20T11:44:52.088Z,6.87
2018-01-20T11:47:19.529Z,6.53
2018-01-20T11:49:46.980Z,6.20
2018-01-20T11:52:14.464Z,6.87
2018-01-20T11:54:41.910Z,6.43
2018-01-20T11:57:09.368Z,7.10
2018-01-20T11:59:36.974Z,6.33
2018-01-20T12:02:04.438Z,6.80
2018-01-20T12:04:31.887Z,6.67
2018-01-20T12:06:59.344Z,7.07
2018-01-20T12:09:26.789Z,7.77
2018-01-20T12:11:54.236Z,7.47
2018-01-20T12:14:21.693Z,8.32
2018-01-20T12:16:49.915Z,7.63
2018-01-20T12:19:17.359Z,7.67
2018-01-20T12:21:45.029Z,7.50
2018-01-20T12:24:12.476Z,7.47
2018-01-20T12:26:39.922Z,8.33
2018-01-20T12:29:08.159Z,8.40
2018-01-20T12:31:35.600Z,8.50
2018-01-20T12:34:03.064Z,7.97
2018-01-20T12:36:30.520Z,8.60
2018-01-20T12:38:57.990Z,9.97
2018-01-20T12:41:25.506Z,10.97
2018-01-20T12:43:52.938Z,9.97
2018-01-20T12:46:20.424Z,9.80
2018-01-20T12:48:47.874Z,10.03
2018-01-20T12:51:15.363Z,10.13
2018-01-20T12:53:42.823Z,10.03
2018-01-20T12:56:10.270Z,10.70
2018-01-20T12:58:39.243Z,9.80
2018-01-20T13:01:06.694Z,11.33
2018-01-20T13:03:34.180Z,9.83
2018-01-20T13:06:01.619Z,9.67
2018-01-20T13:08:29.068Z,9.63
2018-01-20T13:10:56.556Z,10.40
2018-01-20T13:13:24.783Z,10.30
2018-01-20T13:15:53.013Z,10.60
2018-01-20T13:18:21.238Z,11.33
2018-01-20T13:20:49.484Z,11.07
2018-01-20T13:23:16.925Z,11.30
2018-01-20T13:25:44.378Z,10.13
2018-01-20T13:28:11.838Z,10.37
2018-01-20T13:30:39.285Z,10.20
2018-01-20T13:33:07.517Z,10.77
2018-01-20T13:35:34.975Z,11.30
2018-01-20T13:38:02.423Z,10.57
2018-01-20T13:40:29.883Z,10.90
2018-01-20T13:42:57.337Z,10.50
2018-01-20T13:45:24.814Z,10.67
2018-01-20T13:47:52.271Z,11.00
2018-01-20T13:50:19.729Z,10.03
2018-01-20T13:52:47.183Z,11.37
2018-01-20T13:55:14.666Z,11.50
2018-01-20T13:57:42.130Z,11.33
2018-01-20T14:00:09.586Z,11.40
2018-01-20T14:02:37.038Z,10.80
2018-01-20T14:05:04.499Z,10.87
2018-01-20T14:07:31.949Z,10.67
2018-01-20T14:09:59.397Z,11.83
2018-01-20T14:12:27.602Z,11.40
2018-01-20T14:14:55.079Z,11.13
2018-01-20T14:17:22.530Z,10.50
2018-01-20T14:19:49.998Z,11.13
2018-01-20T14:22:17.439Z,11.53
2018-01-20T14:24:44.890Z,11.30
2018-01-20T14:27:13.093Z,11.23
2018-01-20T14:29:40.541Z,11.80
2018-01-20T14:32:07.999Z,11.13
2018-01-20T14:34:36.226Z,11.23
2018-01-20T14:37:03.707Z,12.13
2018-01-20T14:39:31.169Z,11.60
2018-01-20T14:41:58.626Z,11.43
2018-01-20T14:44:26.124Z,13.00
2018-01-20T14:46:54.339Z,11.33
2018-01-20T14:49:21.802Z,12.47
2018-01-20T14:51:49.261Z,11.57
2018-01-20T14:54:16.721Z,11.60
2018-01-20T14:56:44.200Z,11.90
2018-01-20T14:59:11.673Z,12.23
2018-01-20T15:01:39.324Z,14.20
2018-01-20T15:04:06.795Z,13.40
2018-01-20T15:06:34.251Z,17.20
2018-01-20T15:09:01.703Z,13.10
2018-01-20T15:11:29.149Z,13.93
2018-01-20T15:13:56.596Z,13.13
2018-01-20T15:16:24.845Z,12.40
2018-01-20T15:18:52.316Z,13.00
2018-01-20T15:21:19.790Z,13.07
2018-01-20T15:23:47.244Z,13.10
2018-01-20T15:26:14.715Z,12.77
2018-01-20T15:28:42.170Z,12.90
2018-01-20T15:31:09.650Z,12.53
2018-01-20T15:33:37.082Z,13.43
2018-01-20T15:36:04.535Z,12.60
2018-01-20T15:38:31.999Z,13.03
2018-01-20T15:40:59.472Z,12.33
2018-01-20T15:43:26.912Z,12.63
2018-01-20T15:45:54.383Z,12.70
2018-01-20T15:48:21.848Z,12.60
2018-01-20T15:50:49.306Z,12.73
2018-01-20T15:53:16.772Z,12.30
2018-01-20T15:55:44.227Z,12.27
2018-01-20T15:58:11.689Z,12.20
2018-01-20T16:00:39.154Z,11.70
2018-01-20T16:03:06.604Z,12.77
2018-01-20T16:05:34.071Z,12.47
2018-01-20T16:08:01.555Z,12.33
2018-01-20T16:10:29.034Z,13.30
2018-01-20T16:12:56.505Z,11.90
2018-01-20T16:15:23.973Z,12.23
2018-01-20T16:17:51.427Z,12.10
2018-01-20T16:20:18.873Z,12.17
2018-01-20T16:22:46.380Z,12.57
2018-01-20T16:25:13.804Z,12.00
2018-01-20T16:27:41.263Z,12.17
2018-01-20T16:30:08.718Z,11.67
2018-01-20T16:32:36.976Z,12.73
2018-01-20T16:35:04.450Z,12.43
2018-01-20T16:37:31.915Z,11.40
2018-01-20T16:39:59.392Z,12.90
2018-01-20T16:42:26.859Z,12.23
2018-01-20T16:44:54.356Z,12.93
2018-01-20T16:47:22.592Z,11.77
2018-01-20T16:49:50.048Z,13.70
2018-01-20T16:52:17.500Z,12.20
2018-01-20T16:54:45.011Z,11.53
2018-01-20T16:57:12.472Z,11.83
2018-01-20T16:59:39.941Z,11.63
2018-01-20T17:02:07.398Z,12.00
2018-01-20T17:04:34.843Z,11.67
2018-01-20T17:07:02.295Z,10.80
2018-01-20T17:09:29.757Z,11.90
2018-01-20T17:11:57.220Z,12.07
2018-01-20T17:14:24.688Z,12.67
2018-01-20T17:16:52.157Z,11.93
2018-01-20T17:19:19.610Z,12.30
2018-01-20T17:21:47.097Z,11.23
2018-01-20T17:24:14.542Z,12.13
2018-01-20T17:26:42.017Z,11.93
2018-01-20T17:29:09.505Z,11.83
2018-01-20T17:31:37.732Z,11.33
2018-01-20T17:34:05.211Z,11.23
2018-01-20T17:36:32.660Z,11.50
2018-01-20T17:39:00.105Z,11.80
2018-01-20T17:41:27.566Z,12.03
2018-01-20T17:43:55.051Z,10.53
2018-01-20T17:46:22.535Z,10.93
2018-01-20T17:48:49.976Z,11.77
2018-01-20T17:51:17.414Z,12.30
2018-01-20T17:53:44.848Z,11.07
2018-01-20T17:56:13.092Z,11.20
2018-01-20T17:58:40.776Z,10.90
2018-01-20T18:01:08.247Z,12.10
2018-01-20T18:03:35.682Z,11.70
2018-01-20T18:06:03.236Z,11.53
2018-01-20T18:08:30.679Z,11.67
2018-01-20T18:10:58.124Z,12.07
2018-01-20T18:13:26.344Z,11.23
2018-01-20T18:15:53.817Z,11.83
2018-01-20T18:18:22.045Z,11.40
2018-01-20T18:20:50.257Z,11.73
2018-01-20T18:23:17.734Z,9.93
2018-01-20T18:25:45.204Z,10.40
2018-01-20T18:28:12.671Z,10.63
2018-01-20T18:30:40.130Z,9.73
2018-01-20T18:33:07.591Z,9.30
2018-01-20T18:35:35.033Z,9.60
2018-01-20T18:38:02.498Z,9.37
2018-01-20T18:40:29.946Z,8.67
2018-01-20T18:42:57.416Z,8.57
2018-01-20T18:45:24.867Z,8.80
2018-01-20T18:47:52.335Z,8.10
2018-01-20T18:50:19.813Z,7.47
2018-01-20T18:52:47.268Z,8.30
2018-01-20T18:55:14.727Z,8.17
2018-01-20T18:57:42.157Z,7.40
2018-01-20T19:00:10.387Z,8.13
2018-01-20T19:02:37.981Z,7.10
2018-01-20T19:05:05.424Z,7.27
2018-01-20T19:07:32.887Z,7.07
2018-01-20T19:10:00.351Z,6.77
2018-01-20T19:12:27.793Z,7.07
2018-01-20T19:14:55.265Z,6.87
2018-01-20T19:17:22.709Z,6.93
2018-01-20T19:19:50.166Z,6.80
2018-01-20T19:22:17.625Z,7.00
2018-01-20T19:24:45.822Z,6.33
2018-01-20T19:27:13.284Z,6.50
2018-01-20T19:29:40.733Z,6.40
2018-01-20T19:32:08.175Z,6.37
2018-01-20T19:34:36.398Z,6.47
2018-01-20T19:37:04.623Z,5.90
2018-01-20T19:39:32.073Z,5.73
2018-01-20T19:41:59.524Z,6.33
2018-01-20T19:44:26.982Z,6.07
2018-01-20T19:46:54.434Z,5.90
2018-01-20T19:49:21.997Z,5.63
2018-01-20T19:51:49.476Z,5.57
2018-01-20T19:54:16.944Z,5.23
2018-01-20T19:56:44.381Z,5.23
2018-01-20T19:59:11.842Z,5.63
2018-01-20T20:01:39.294Z,5.37
2018-01-20T20:04:06.756Z,5.50
2018-01-20T20:06:34.332Z,5.50
2018-01-20T20:09:01.805Z,5.47
2018-01-20T20:11:29.241Z,5.60
2018-01-20T20:13:56.690Z,5.10
2018-01-20T20:16:24.153Z,4.80
2018-01-20T20:18:52.360Z,5.87
2018-01-20T20:21:19.813Z,5.10
2018-01-20T20:23:47.271Z,5.13
2018-01-20T20:26:14.742Z,5.10
2018-01-20T20:28:42.222Z,5.10
2018-01-20T20:31:09.689Z,4.87
2018-01-20T20:33:37.129Z,5.00
2018-01-20T20:36:04.609Z,4.87
2018-01-20T20:38:32.030Z,5.20
2018-01-20T20:40:59.510Z,4.87
2018-01-20T20:43:26.951Z,4.30
2018-01-20T20:45:55.165Z,4.57
2018-01-20T20:48:22.703Z,4.17
2018-01-20T20:50:50.074Z,4.30
2018-01-20T20:53:17.523Z,4.90
2018-01-20T20:55:45.740Z,4.10
2018-01-20T20:58:13.194Z,3.90
2018-01-20T21:00:40.642Z,4.17
2018-01-20T21:03:08.094Z,3.60
2018-01-20T21:05:35.532Z,3.93
2018-01-20T21:08:02.985Z,4.37
2018-01-20T21:10:30.459Z,4.30
2018-01-20T21:12:58.686Z,4.30
2018-01-20T21:15:26.137Z,4.10
2018-01-20T21:17:53.603Z,4.23
2018-01-20T21:20:21.059Z,4.20
2018-01-20T21:22:48.530Z,3.97
2018-01-20T21:25:15.972Z,3.90
2018-01-20T21:27:45.411Z,3.60
2018-01-20T21:30:12.870Z,3.83
2018-01-20T21:32:40.279Z,3.70
2018-01-20T21:35:07.739Z,3.20
2018-01-20T21:37:35.260Z,3.90
2018-01-20T21:40:02.708Z,3.43
2018-01-20T21:42:30.189Z,3.60
2018-01-20T21:44:57.618Z,3.90
2018-01-20T21:47:25.052Z,3.10
2018-01-20T21:49:52.512Z,3.20
2018-01-20T21:52:19.960Z,2.93
2018-01-20T21:54:47.435Z,3.50
2018-01-20T21:57:14.869Z,3.00
2018-01-20T21:59:42.336Z,3.20
2018-01-20T22:02:09.792Z,2.77
2018-01-20T22:04:37.235Z,3.70
2018-01-20T22:07:04.669Z,2.90
2018-01-20T22:09:32.881Z,3.07
2018-01-20T22:12:00.342Z,3.10
2018-01-20T22:14:27.781Z,2.77
2018-01-20T22:16:56.045Z,2.50
2018-01-20T22:19:23.493Z,2.73
2018-01-20T22:21:50.947Z,2.53
2018-01-20T22:24:18.409Z,2.60
2018-01-20T22:26:45.872Z,2.33
2018-01-20T22:29:13.311Z,2.30
2018-01-20T22:31:40.778Z,2.63
2018-01-20T22:34:08.223Z,2.43
2018-01-20T22:36:35.778Z,2.50
2018-01-20T22:39:03.239Z,2.53
2018-01-20T22:41:30.735Z,2.43
2018-01-20T22:43:58.191Z,2.40
2018-01-20T22:46:26.765Z,2.40
2018-01-20T22:48:54.981Z,2.77
2018-01-20T22:51:22.451Z,2.70
2018-01-20T22:53:49.921Z,2.13
2018-01-20T22:56:17.372Z,2.30
2018-01-20T22:58:44.827Z,2.40
2018-01-20T23:01:17.880Z,2.23
2018-01-20T23:03:45.310Z,2.10
2018-01-20T23:06:13.591Z,2.67
2018-01-20T23:08:41.827Z,2.60
2018-01-20T23:11:09.271Z,2.30
2018-01-20T23:13:36.727Z,2.40
2018-01-20T23:16:04.172Z,3.00
2018-01-20T23:18:32.400Z,2.23
2018-01-20T23:20:59.854Z,2.23
2018-01-20T23:23:27.319Z,2.43
2018-01-20T23:25:54.795Z,2.50
2018-01-20T23:28:22.272Z,2.00
2018-01-20T23:30:49.723Z,2.03
2018-01-20T23:33:17.179Z,2.33
2018-01-20T23:35:44.643Z,2.00
2018-01-20T23:38:12.104Z,2.20
2018-01-20T23:40:39.562Z,1.70
2018-01-20T23:43:07.012Z,2.03
2018-01-20T23:45:34.463Z,1.90
2018-01-20T23:48:01.922Z,1.70
2018-01-20T23:50:29.394Z,1.80
2018-01-20T23:52:56.915Z,1.80
2018-01-20T23:55:24.362Z,1.90
2018-01-20T23:57:51.815Z,1.90
